createdAt,value
2023-03-02T00:00:10.736Z,-1.30
2023-03-02T00:01:13.192Z,-1.30
2023-03-02T00:02:22.605Z,-1.30
2023-03-02T00:03:25.201Z,-1.30
2023-03-02T00:04:50.277Z,-1.30
2023-03-02T00:05:53.645Z,-1.30
2023-03-02T00:06:59.408Z,-1.30
2023-03-02T00:08:02.615Z,-1.30
2023-03-02T00:09:06.156Z,-1.20
2023-03-02T00:10:08.550Z,-1.20
2023-03-02T00:11:11.232Z,-1.20
2023-03-02T00:12:14.145Z,-1.20
2023-03-02T00:13:15.945Z,-1.20
2023-03-02T00:14:17.876Z,-1.20
2023-03-02T00:15:19.924Z,-1.20
2023-03-02T00:16:21.669Z,-1.20
2023-03-02T00:17:27.968Z,-1.20
2023-03-02T00:18:29.809Z,-1.20
2023-03-02T00:19:31.623Z,-1.30
2023-03-02T00:20:34.743Z,-1.30
2023-03-02T00:21:36.485Z,-1.30
2023-03-02T00:22:46.005Z,-1.30
2023-03-02T00:23:47.746Z,-1.30
2023-03-02T00:24:49.484Z,-1.30
2023-03-02T00:25:51.267Z,-1.30
2023-03-02T00:26:53.207Z,-1.30
2023-03-02T00:27:54.995Z,-1.20
2023-03-02T00:28:56.752Z,-1.20
2023-03-02T00:29:58.569Z,-1.20
2023-03-02T00:31:00.501Z,-1.20
2023-03-02T00:32:03.849Z,-1.20
2023-03-02T00:33:05.595Z,-1.20
2023-03-02T00:34:07.604Z,-1.20
2023-03-02T00:35:09.660Z,-1.20
2023-03-02T00:36:18.306Z,-1.20
2023-03-02T00:37:20.119Z,-1.20
2023-03-02T00:38:21.854Z,-1.30
2023-03-02T00:39:23.603Z,-1.30
2023-03-02T00:40:25.375Z,-1.40
2023-03-02T00:41:27.270Z,-1.40
2023-03-02T00:42:29.008Z,-1.50
2023-03-02T00:43:30.720Z,-1.50
2023-03-02T00:44:32.579Z,-1.50
2023-03-02T00:45:34.341Z,-1.50
2023-03-02T00:46:36.303Z,-1.50
2023-03-02T00:47:39.127Z,-1.50
2023-03-02T00:48:41.798Z,-1.60
2023-03-02T00:49:48.927Z,-1.60
2023-03-02T00:50:50.902Z,-1.60
2023-03-02T00:51:52.671Z,-1.60
2023-03-02T00:52:54.460Z,-1.70
2023-03-02T00:53:56.198Z,-1.70
2023-03-02T00:54:58.002Z,-1.80
2023-03-02T00:56:01.028Z,-1.80
2023-03-02T00:57:02.763Z,-1.80
2023-03-02T00:58:05.562Z,-1.90
2023-03-02T00:59:26.085Z,-1.90
2023-03-02T01:00:28.705Z,-1.90
2023-03-02T01:01:30.480Z,-1.90
2023-03-02T01:02:32.322Z,-1.90
2023-03-02T01:03:34.291Z,-1.90
2023-03-02T01:04:39.020Z,-1.90
2023-03-02T01:05:40.780Z,-1.90
2023-03-02T01:06:47.152Z,-1.80
2023-03-02T01:07:49.111Z,-1.80
2023-03-02T01:08:50.995Z,-1.80
2023-03-02T01:09:52.827Z,-1.90
2023-03-02T01:10:54.785Z,-1.90
2023-03-02T01:11:56.876Z,-1.90
2023-03-02T01:12:58.658Z,-1.90
2023-03-02T01:14:00.378Z,-1.90
2023-03-02T01:15:02.882Z,-1.90
2023-03-02T01:16:05.088Z,-1.90
2023-03-02T01:17:08.396Z,-1.80
2023-03-02T01:18:11.613Z,-1.80
2023-03-02T01:19:14.657Z,-1.80
2023-03-02T01:20:17.634Z,-1.80
2023-03-02T01:21:19.373Z,-1.80
2023-03-02T01:22:22.189Z,-1.90
2023-03-02T01:23:23.908Z,-1.90
2023-03-02T01:24:26.037Z,-1.90
2023-03-02T01:25:27.814Z,-1.90
2023-03-02T01:26:29.813Z,-2.00
2023-03-02T01:27:31.917Z,-2.00
2023-03-02T01:28:33.782Z,-2.00
2023-03-02T01:29:35.670Z,-2.00
2023-03-02T01:30:37.369Z,-2.10
2023-03-02T01:31:39.421Z,-2.10
2023-03-02T01:32:41.285Z,-2.10
2023-03-02T01:33:43.097Z,-2.10
2023-03-02T01:34:44.841Z,-2.10
2023-03-02T01:35:47.434Z,-2.20
2023-03-02T01:36:49.219Z,-2.20
2023-03-02T01:37:50.922Z,-2.20
2023-03-02T01:38:54.122Z,-2.20
2023-03-02T01:44:46.277Z,-2.20
2023-03-02T01:45:53.233Z,-2.20
2023-03-02T01:46:55.145Z,-2.20
2023-03-02T01:47:56.912Z,-2.30
2023-03-02T01:49:02.442Z,-2.30
2023-03-02T01:50:26.303Z,-2.30
2023-03-02T01:51:30.688Z,-2.30
2023-03-02T01:52:38.261Z,-2.20
2023-03-02T01:53:46.690Z,-2.20
2023-03-02T01:54:50.026Z,-2.20
2023-03-02T01:55:52.756Z,-2.20
2023-03-02T01:57:01.127Z,-2.20
2023-03-02T01:58:04.600Z,-2.20
2023-03-02T01:59:10.477Z,-2.20
2023-03-02T02:00:16.584Z,-2.20
2023-03-02T02:01:18.459Z,-2.10
2023-03-02T02:02:20.264Z,-2.10
2023-03-02T02:03:26.090Z,-2.20
2023-03-02T02:04:29.742Z,-2.20
2023-03-02T02:05:31.498Z,-2.10
2023-03-02T02:06:42.838Z,-2.10
2023-03-02T02:07:44.942Z,-2.20
2023-03-02T02:08:47.409Z,-2.20
2023-03-02T02:09:52.577Z,-2.20
2023-03-02T02:10:55.289Z,-2.20
2023-03-02T02:11:57.171Z,-2.20
2023-03-02T02:12:58.921Z,-2.20
2023-03-02T02:14:02.116Z,-2.20
2023-03-02T02:15:05.374Z,-2.20
2023-03-02T02:16:07.566Z,-2.30
2023-03-02T02:17:10.082Z,-2.30
2023-03-02T02:18:12.238Z,-2.30
2023-03-02T02:19:24.028Z,-2.30
2023-03-02T02:20:32.353Z,-2.30
2023-03-02T02:21:34.261Z,-2.30
2023-03-02T02:22:45.103Z,-2.30
2023-03-02T02:23:56.315Z,-2.30
2023-03-02T02:25:03.426Z,-2.30
2023-03-02T02:26:41.761Z,-2.30
2023-03-02T02:27:43.711Z,-2.30
2023-03-02T02:29:02.438Z,-2.40
2023-03-02T02:30:07.156Z,-2.40
2023-03-02T02:31:21.036Z,-2.40
2023-03-02T02:32:26.806Z,-2.50
2023-03-02T02:33:28.895Z,-2.40
2023-03-02T02:34:45.488Z,-2.50
2023-03-02T02:35:49.176Z,-2.50
2023-03-02T02:36:56.551Z,-2.50
2023-03-02T02:38:04.231Z,-2.40
2023-03-02T02:39:08.320Z,-2.40
2023-03-02T02:40:18.682Z,-2.40
2023-03-02T02:41:24.577Z,-2.40
2023-03-02T02:42:33.054Z,-2.40
2023-03-02T02:43:34.902Z,-2.40
2023-03-02T02:44:36.761Z,-2.40
2023-03-02T02:45:38.965Z,-2.50
2023-03-02T02:46:40.908Z,-2.50
2023-03-02T02:47:43.602Z,-2.60
2023-03-02T02:48:45.326Z,-2.60
2023-03-02T02:49:49.888Z,-2.70
2023-03-02T02:51:00.505Z,-2.70
2023-03-02T02:52:04.097Z,-2.70
2023-03-02T02:53:22.047Z,-2.70
2023-03-02T02:54:24.487Z,-2.80
2023-03-02T02:55:27.479Z,-2.80
2023-03-02T02:56:36.048Z,-2.90
2023-03-02T02:57:37.966Z,-2.90
2023-03-02T02:58:39.654Z,-2.90
2023-03-02T02:59:48.841Z,-3.00
2023-03-02T03:00:50.888Z,-3.00
2023-03-02T03:01:52.783Z,-3.00
2023-03-02T03:03:01.961Z,-3.00
2023-03-02T03:04:05.847Z,-3.10
2023-03-02T03:05:14.651Z,-3.10
2023-03-02T03:06:20.968Z,-3.10
2023-03-02T03:07:24.641Z,-3.10
2023-03-02T03:08:41.671Z,-3.10
2023-03-02T03:09:43.463Z,-3.10
2023-03-02T03:10:45.915Z,-3.10
2023-03-02T03:11:54.510Z,-3.00
2023-03-02T03:12:56.768Z,-3.00
2023-03-02T03:14:11.576Z,-3.00
2023-03-02T03:15:14.875Z,-3.00
2023-03-02T03:16:18.281Z,-3.00
2023-03-02T03:17:20.126Z,-3.00
2023-03-02T03:18:24.965Z,-3.00
2023-03-02T03:19:32.249Z,-3.00
2023-03-02T03:20:34.047Z,-3.00
2023-03-02T03:21:36.138Z,-3.00
2023-03-02T03:22:38.882Z,-3.00
2023-03-02T03:23:40.605Z,-2.90
2023-03-02T03:24:44.262Z,-2.90
2023-03-02T03:25:46.015Z,-2.90
2023-03-02T03:26:48.735Z,-2.90
2023-03-02T03:27:50.569Z,-2.90
2023-03-02T03:28:52.705Z,-2.90
2023-03-02T03:29:54.492Z,-3.00
2023-03-02T03:30:56.227Z,-3.00
2023-03-02T03:31:59.142Z,-3.00
2023-03-02T03:33:00.899Z,-3.00
2023-03-02T03:34:02.681Z,-3.00
2023-03-02T03:35:08.565Z,-3.00
2023-03-02T03:36:10.502Z,-3.00
2023-03-02T03:37:15.777Z,-3.00
2023-03-02T03:38:18.285Z,-3.00
2023-03-02T03:39:20.639Z,-3.00
2023-03-02T03:40:22.424Z,-3.00
2023-03-02T03:41:24.841Z,-3.00
2023-03-02T03:42:26.947Z,-3.00
2023-03-02T03:43:28.815Z,-3.00
2023-03-02T03:44:30.648Z,-3.00
2023-03-02T03:45:32.480Z,-3.00
2023-03-02T03:46:35.185Z,-3.00
2023-03-02T03:47:37.605Z,-3.00
2023-03-02T03:48:39.459Z,-3.00
2023-03-02T03:49:41.165Z,-2.90
2023-03-02T03:50:42.901Z,-2.90
2023-03-02T03:51:44.693Z,-2.90
2023-03-02T03:52:46.468Z,-2.80
2023-03-02T03:53:59.703Z,-2.80
2023-03-02T03:55:02.292Z,-2.80
2023-03-02T03:56:04.337Z,-2.80
2023-03-02T03:57:06.367Z,-2.90
2023-03-02T03:58:08.093Z,-2.90
2023-03-02T03:59:13.725Z,-2.90
2023-03-02T04:00:19.784Z,-2.90
2023-03-02T04:01:21.536Z,-2.90
2023-03-02T04:02:23.427Z,-2.90
2023-03-02T04:03:25.595Z,-2.90
2023-03-02T04:04:31.360Z,-2.90
2023-03-02T04:05:33.467Z,-3.00
2023-03-02T04:06:36.138Z,-3.00
2023-03-02T04:07:39.140Z,-3.00
2023-03-02T04:08:40.877Z,-3.00
2023-03-02T04:09:43.222Z,-3.00
2023-03-02T04:10:45.559Z,-3.00
2023-03-02T04:11:49.703Z,-2.90
2023-03-02T04:12:51.486Z,-3.00
2023-03-02T04:13:53.211Z,-3.00
2023-03-02T04:14:54.993Z,-3.10
2023-03-02T04:15:56.744Z,-3.20
2023-03-02T04:16:58.940Z,-3.10
2023-03-02T04:18:00.907Z,-3.10
2023-03-02T04:19:03.948Z,-3.10
2023-03-02T04:20:09.571Z,-3.10
2023-03-02T04:21:11.286Z,-3.10
2023-03-02T04:22:13.081Z,-3.20
2023-03-02T04:23:14.888Z,-3.20
2023-03-02T04:24:18.510Z,-3.30
2023-03-02T04:25:23.980Z,-3.40
2023-03-02T04:26:26.865Z,-3.40
2023-03-02T04:27:28.657Z,-3.30
2023-03-02T04:28:30.725Z,-3.30
2023-03-02T04:29:32.543Z,-3.30
2023-03-02T04:30:34.446Z,-3.30
2023-03-02T04:31:37.050Z,-3.30
2023-03-02T04:32:38.924Z,-3.40
2023-03-02T04:33:40.673Z,-3.40
2023-03-02T04:34:42.387Z,-3.40
2023-03-02T04:35:44.247Z,-3.50
2023-03-02T04:36:46.705Z,-3.40
2023-03-02T04:37:48.513Z,-3.40
2023-03-02T04:38:50.693Z,-3.40
2023-03-02T04:39:53.386Z,-3.40
2023-03-02T04:40:56.992Z,-3.40
2023-03-02T04:41:58.772Z,-3.40
2023-03-02T04:43:00.532Z,-3.40
2023-03-02T04:44:02.433Z,-3.40
2023-03-02T04:45:04.505Z,-3.40
2023-03-02T04:46:06.411Z,-3.40
2023-03-02T04:47:09.375Z,-3.40
2023-03-02T04:48:11.132Z,-3.40
2023-03-02T04:49:14.886Z,-3.40
2023-03-02T04:50:16.708Z,-3.40
2023-03-02T04:51:30.724Z,-3.40
2023-03-02T04:52:32.496Z,-3.40
2023-03-02T04:53:34.325Z,-3.40
2023-03-02T04:54:36.092Z,-3.40
2023-03-02T04:55:38.961Z,-3.40
2023-03-02T04:56:40.771Z,-3.40
2023-03-02T04:57:42.539Z,-3.40
2023-03-02T04:58:44.376Z,-3.40
2023-03-02T04:59:46.161Z,-3.40
2023-03-02T05:00:47.918Z,-3.50
2023-03-02T05:01:50.306Z,-3.40
2023-03-02T05:02:52.276Z,-3.40
2023-03-02T05:03:54.260Z,-3.40
2023-03-02T05:04:56.174Z,-3.40
2023-03-02T05:05:58.018Z,-3.40
2023-03-02T05:06:59.982Z,-3.40
2023-03-02T05:08:01.826Z,-3.40
2023-03-02T05:09:04.822Z,-3.40
2023-03-02T05:10:07.092Z,-3.40
2023-03-02T05:11:10.754Z,-3.40
2023-03-02T05:12:12.494Z,-3.40
2023-03-02T05:13:14.297Z,-3.30
2023-03-02T05:14:16.016Z,-3.40
2023-03-02T05:15:17.825Z,-3.40
2023-03-02T05:16:21.134Z,-3.40
2023-03-02T05:17:22.986Z,-3.50
2023-03-02T05:18:25.986Z,-3.50
2023-03-02T05:19:28.126Z,-3.50
2023-03-02T05:20:31.473Z,-3.50
2023-03-02T05:21:33.263Z,-3.40
2023-03-02T05:22:34.974Z,-3.40
2023-03-02T05:23:36.780Z,-3.40
2023-03-02T05:24:38.588Z,-3.40
2023-03-02T05:25:40.340Z,-3.60
2023-03-02T05:26:42.223Z,-3.60
2023-03-02T05:27:43.993Z,-3.60
2023-03-02T05:28:46.549Z,-3.70
2023-03-02T05:29:48.315Z,-3.70
2023-03-02T05:30:50.813Z,-3.70
2023-03-02T05:31:52.681Z,-3.80
2023-03-02T05:32:54.924Z,-3.80
2023-03-02T05:33:57.034Z,-3.80
2023-03-02T05:34:58.889Z,-3.80
2023-03-02T05:36:01.254Z,-3.80
2023-03-02T05:37:03.038Z,-3.80
2023-03-02T05:38:05.259Z,-3.80
2023-03-02T05:39:08.653Z,-3.80
2023-03-02T05:40:16.945Z,-3.70
2023-03-02T05:41:18.728Z,-3.80
2023-03-02T05:42:20.495Z,-3.80
2023-03-02T05:43:23.418Z,-3.70
2023-03-02T05:44:25.157Z,-3.70
2023-03-02T05:45:30.672Z,-3.70
2023-03-02T05:46:32.822Z,-3.70
2023-03-02T05:47:34.766Z,-3.70
2023-03-02T05:48:36.524Z,-3.70
2023-03-02T05:49:38.306Z,-3.70
2023-03-02T05:50:40.510Z,-3.70
2023-03-02T05:51:42.278Z,-3.70
2023-03-02T05:52:45.455Z,-3.70
2023-03-02T05:53:47.703Z,-3.70
2023-03-02T05:54:49.514Z,-3.70
2023-03-02T05:55:51.694Z,-3.70
2023-03-02T05:56:53.411Z,-3.70
2023-03-02T05:57:55.389Z,-3.70
2023-03-02T05:58:57.146Z,-3.70
2023-03-02T05:59:58.874Z,-3.80
2023-03-02T06:01:01.282Z,-3.70
2023-03-02T06:02:04.285Z,-3.80
2023-03-02T06:03:06.240Z,-3.70
2023-03-02T06:04:08.138Z,-3.80
2023-03-02T06:05:15.943Z,-3.70
2023-03-02T06:06:17.721Z,-3.80
2023-03-02T06:07:19.463Z,-3.80
2023-03-02T06:08:21.697Z,-3.80
2023-03-02T06:09:23.506Z,-3.80
2023-03-02T06:10:25.333Z,-3.90
2023-03-02T06:11:27.170Z,-3.80
2023-03-02T06:12:28.934Z,-3.80
2023-03-02T06:13:30.674Z,-3.80
2023-03-02T06:14:32.438Z,-3.80
2023-03-02T06:15:34.218Z,-3.80
2023-03-02T06:16:37.242Z,-3.80
2023-03-02T06:17:39.156Z,-3.80
2023-03-02T06:18:41.641Z,-3.80
2023-03-02T06:19:43.493Z,-3.80
2023-03-02T06:20:45.360Z,-3.80
2023-03-02T06:21:47.094Z,-3.80
2023-03-02T06:22:48.927Z,-3.70
2023-03-02T06:23:50.704Z,-3.70
2023-03-02T06:24:55.125Z,-3.70
2023-03-02T06:25:58.188Z,-3.70
2023-03-02T06:27:00.257Z,-3.60
2023-03-02T06:28:02.140Z,-3.60
2023-03-02T06:29:05.512Z,-3.60
2023-03-02T06:30:09.416Z,-3.60
2023-03-02T06:31:11.134Z,-3.50
2023-03-02T06:32:12.986Z,-3.50
2023-03-02T06:33:18.089Z,-3.40
2023-03-02T06:34:19.840Z,-3.40
2023-03-02T06:35:21.729Z,-3.30
2023-03-02T06:36:23.877Z,-3.30
2023-03-02T06:37:25.650Z,-3.20
2023-03-02T06:38:27.458Z,-3.20
2023-03-02T06:39:30.138Z,-3.30
2023-03-02T06:40:31.887Z,-3.30
2023-03-02T06:41:34.079Z,-3.30
2023-03-02T06:42:37.174Z,-3.30
2023-03-02T06:43:38.931Z,-3.30
2023-03-02T06:44:40.667Z,-3.30
2023-03-02T06:45:42.426Z,-3.30
2023-03-02T06:46:45.845Z,-3.30
2023-03-02T06:47:47.784Z,-3.30
2023-03-02T06:48:49.514Z,-3.20
2023-03-02T06:49:51.394Z,-3.20
2023-03-02T06:50:53.201Z,-3.20
2023-03-02T06:51:54.966Z,-3.20
2023-03-02T06:52:56.839Z,-3.10
2023-03-02T06:53:58.922Z,-3.10
2023-03-02T06:55:00.768Z,-3.10
2023-03-02T06:56:02.509Z,-3.00
2023-03-02T06:57:04.352Z,-3.00
2023-03-02T06:58:06.181Z,-3.00
2023-03-02T06:59:07.976Z,-3.00
2023-03-02T07:00:25.888Z,-2.90
2023-03-02T07:01:32.793Z,-2.90
2023-03-02T07:02:34.816Z,-2.80
2023-03-02T07:03:36.966Z,-2.80
2023-03-02T07:04:39.451Z,-2.70
2023-03-02T07:05:41.272Z,-2.60
2023-03-02T07:06:43.409Z,-2.60
2023-03-02T07:07:45.411Z,-2.50
2023-03-02T07:08:47.201Z,-2.40
2023-03-02T07:09:48.974Z,-2.40
2023-03-02T07:10:50.698Z,-2.30
2023-03-02T07:11:52.444Z,-2.30
2023-03-02T07:12:54.435Z,-2.30
2023-03-02T07:13:56.150Z,-2.30
2023-03-02T07:14:57.908Z,-2.40
2023-03-02T07:15:59.679Z,-2.30
2023-03-02T07:17:03.689Z,-2.40
2023-03-02T07:18:05.480Z,-2.30
2023-03-02T07:19:10.188Z,-2.40
2023-03-02T07:20:14.037Z,-2.30
2023-03-02T07:21:15.788Z,-2.30
2023-03-02T07:22:17.552Z,-2.30
2023-03-02T07:23:19.306Z,-2.40
2023-03-02T07:24:22.357Z,-2.40
2023-03-02T07:25:24.128Z,-2.40
2023-03-02T07:26:25.884Z,-2.40
2023-03-02T07:27:28.007Z,-2.30
2023-03-02T07:28:29.755Z,-2.30
2023-03-02T07:29:31.530Z,-2.20
2023-03-02T07:30:33.413Z,-2.20
2023-03-02T07:31:35.570Z,-2.20
2023-03-02T07:32:37.573Z,-2.10
2023-03-02T07:33:40.231Z,-2.10
2023-03-02T07:34:41.976Z,-2.10
2023-03-02T07:35:43.753Z,-2.00
2023-03-02T07:36:45.567Z,-1.90
2023-03-02T07:37:47.392Z,-1.90
2023-03-02T07:38:49.120Z,-1.80
2023-03-02T07:39:51.275Z,-1.80
2023-03-02T07:40:53.043Z,-1.70
2023-03-02T07:41:59.878Z,-1.60
2023-03-02T07:43:01.631Z,-1.60
2023-03-02T07:44:03.372Z,-1.50
2023-03-02T07:45:06.031Z,-1.40
2023-03-02T07:46:07.886Z,-1.40
2023-03-02T07:47:09.754Z,-1.30
2023-03-02T07:48:11.577Z,-1.30
2023-03-02T07:49:13.297Z,-1.20
2023-03-02T07:50:15.188Z,-1.20
2023-03-02T07:51:17.005Z,-1.10
2023-03-02T07:52:18.768Z,-1.10
2023-03-02T07:53:20.508Z,-1.00
2023-03-02T07:54:22.666Z,-0.90
2023-03-02T07:55:24.469Z,-0.80
2023-03-02T07:56:26.278Z,-0.70
2023-03-02T07:57:28.001Z,-0.50
2023-03-02T07:58:29.783Z,-0.40
2023-03-02T07:59:31.558Z,-0.30
2023-03-02T08:00:33.510Z,-0.20
2023-03-02T08:01:35.585Z,0.00
2023-03-02T08:02:37.507Z,0.10
2023-03-02T08:03:39.525Z,0.20
2023-03-02T08:04:41.428Z,0.20
2023-03-02T08:05:43.207Z,0.30
2023-03-02T08:06:45.039Z,0.30
2023-03-02T08:07:47.171Z,0.40
2023-03-02T08:08:49.141Z,0.40
2023-03-02T08:09:51.163Z,0.40
2023-03-02T08:10:52.925Z,0.50
2023-03-02T08:11:54.678Z,0.50
2023-03-02T08:12:56.462Z,0.60
2023-03-02T08:14:02.474Z,0.60
2023-03-02T08:15:05.168Z,0.60
2023-03-02T08:16:10.044Z,0.70
2023-03-02T08:17:11.890Z,0.70
2023-03-02T08:18:13.684Z,0.80
2023-03-02T08:19:15.503Z,0.80
2023-03-02T08:20:17.303Z,0.90
2023-03-02T08:21:21.521Z,0.90
2023-03-02T08:22:23.347Z,1.00
2023-03-02T08:23:25.838Z,1.00
2023-03-02T08:24:27.639Z,1.00
2023-03-02T08:25:29.396Z,1.00
2023-03-02T08:26:31.931Z,1.00
2023-03-02T08:27:33.861Z,1.00
2023-03-02T08:28:36.006Z,1.00
2023-03-02T08:29:37.755Z,1.10
2023-03-02T08:30:40.828Z,1.10
2023-03-02T08:31:42.637Z,1.10
2023-03-02T08:32:44.575Z,1.10
2023-03-02T08:33:46.438Z,1.10
2023-03-02T08:34:51.648Z,1.10
2023-03-02T08:35:56.479Z,1.10
2023-03-02T08:36:58.342Z,1.20
2023-03-02T08:38:00.128Z,1.20
2023-03-02T08:39:01.936Z,1.30
2023-03-02T08:40:04.070Z,1.30
2023-03-02T08:41:07.881Z,1.30
2023-03-02T08:42:09.641Z,1.30
2023-03-02T08:43:11.404Z,1.30
2023-03-02T08:44:13.129Z,1.40
2023-03-02T08:45:15.026Z,1.40
2023-03-02T08:46:18.760Z,1.50
2023-03-02T08:47:20.656Z,1.60
2023-03-02T08:48:22.751Z,1.60
2023-03-02T08:49:24.526Z,1.60
2023-03-02T08:50:26.311Z,1.60
2023-03-02T08:51:28.865Z,1.70
2023-03-02T08:52:32.663Z,1.70
2023-03-02T08:53:38.933Z,1.70
2023-03-02T08:54:40.770Z,1.80
2023-03-02T08:55:42.663Z,1.80
2023-03-02T08:56:44.569Z,1.80
2023-03-02T08:57:46.444Z,1.80
2023-03-02T08:58:49.714Z,1.90
2023-03-02T08:59:52.354Z,1.90
2023-03-02T09:00:54.205Z,2.00
2023-03-02T09:01:56.012Z,2.10
2023-03-02T09:02:57.793Z,2.20
2023-03-02T09:04:00.764Z,2.30
2023-03-02T09:05:02.737Z,2.30
2023-03-02T09:06:04.716Z,2.40
2023-03-02T09:07:06.529Z,2.50
2023-03-02T09:08:09.207Z,2.50
2023-03-02T09:09:12.855Z,2.50
2023-03-02T09:10:14.624Z,2.50
2023-03-02T09:11:16.799Z,2.60
2023-03-02T09:12:18.594Z,2.50
2023-03-02T09:13:20.338Z,2.50
2023-03-02T09:14:22.343Z,2.60
2023-03-02T09:15:24.135Z,2.60
2023-03-02T09:16:26.218Z,2.60
2023-03-02T09:17:28.142Z,2.70
2023-03-02T09:18:30.871Z,2.80
2023-03-02T09:19:43.246Z,2.80
2023-03-02T09:20:53.463Z,2.80
2023-03-02T09:21:55.265Z,2.90
2023-03-02T09:22:57.133Z,2.90
2023-03-02T09:23:59.131Z,2.90
2023-03-02T09:25:00.852Z,3.00
2023-03-02T09:26:03.929Z,3.00
2023-03-02T09:27:05.747Z,3.00
2023-03-02T09:28:07.636Z,3.00
2023-03-02T09:29:09.426Z,3.10
2023-03-02T09:30:12.080Z,3.10
2023-03-02T09:31:13.916Z,3.10
2023-03-02T09:32:15.968Z,3.20
2023-03-02T09:33:18.476Z,3.10
2023-03-02T09:34:20.538Z,3.10
2023-03-02T09:35:22.260Z,3.10
2023-03-02T09:36:26.044Z,3.00
2023-03-02T09:37:28.724Z,3.00
2023-03-02T09:38:30.524Z,3.00
2023-03-02T09:39:32.237Z,3.10
2023-03-02T09:40:40.120Z,3.10
2023-03-02T09:42:05.419Z,3.20
2023-03-02T09:43:12.807Z,3.20
2023-03-02T09:44:44.005Z,3.30
2023-03-02T09:45:51.591Z,3.30
2023-03-02T09:47:02.888Z,3.30
2023-03-02T09:48:46.327Z,3.40
2023-03-02T09:50:27.211Z,3.50
2023-03-02T09:51:46.821Z,3.60
2023-03-02T09:53:07.863Z,3.80
2023-03-02T09:54:24.555Z,3.90
2023-03-02T09:55:32.252Z,4.10
2023-03-02T09:56:38.184Z,4.20
2023-03-02T09:57:40.071Z,4.40
2023-03-02T09:58:48.262Z,4.50
2023-03-02T10:00:19.121Z,4.60
2023-03-02T10:01:34.922Z,4.70
2023-03-02T10:02:48.863Z,4.80
2023-03-02T10:04:25.286Z,4.90
2023-03-02T10:05:42.620Z,5.10
2023-03-02T10:06:45.306Z,5.20
2023-03-02T10:07:48.331Z,5.30
2023-03-02T10:08:51.019Z,5.40
2023-03-02T10:09:53.465Z,5.60
2023-03-02T10:11:13.417Z,5.70
2023-03-02T10:12:48.258Z,5.80
2023-03-02T10:14:00.800Z,6.00
2023-03-02T10:15:22.353Z,6.10
2023-03-02T10:16:37.287Z,6.10
2023-03-02T10:17:39.088Z,6.30
2023-03-02T10:18:43.693Z,6.40
2023-03-02T10:19:50.806Z,6.60
2023-03-02T10:21:06.454Z,6.70
2023-03-02T10:22:15.917Z,6.70
2023-03-02T10:23:38.963Z,6.80
2023-03-02T10:25:08.355Z,7.00
2023-03-02T10:26:21.664Z,7.20
2023-03-02T10:27:33.936Z,7.30
2023-03-02T10:28:44.278Z,7.50
2023-03-02T10:30:06.481Z,7.60
2023-03-02T10:31:25.783Z,7.60
2023-03-02T10:32:32.922Z,7.70
2023-03-02T10:33:38.316Z,7.90
2023-03-02T10:34:40.108Z,7.90
2023-03-02T10:35:47.769Z,7.90
2023-03-02T10:36:49.592Z,7.90
2023-03-02T10:38:15.030Z,8.10
2023-03-02T10:39:17.873Z,8.10
2023-03-02T10:40:31.902Z,8.00
2023-03-02T10:41:41.756Z,7.90
2023-03-02T10:42:43.620Z,7.90
2023-03-02T10:43:48.946Z,8.00
2023-03-02T10:44:59.185Z,8.20
2023-03-02T10:46:07.646Z,8.40
2023-03-02T10:47:20.866Z,8.50
2023-03-02T10:48:23.109Z,8.70
2023-03-02T10:49:32.249Z,8.80
2023-03-02T10:50:34.820Z,8.90
2023-03-02T10:51:37.477Z,9.10
2023-03-02T10:52:59.790Z,9.10
2023-03-02T10:54:13.724Z,9.30
2023-03-02T10:55:15.907Z,9.30
2023-03-02T10:56:21.769Z,9.40
2023-03-02T10:57:28.442Z,9.30
2023-03-02T10:58:32.701Z,9.20
2023-03-02T10:59:49.697Z,9.10
2023-03-02T11:01:00.017Z,9.00
2023-03-02T11:02:12.986Z,8.70
2023-03-02T11:03:22.822Z,8.30
2023-03-02T11:04:24.631Z,8.10
2023-03-02T11:05:37.138Z,8.00
2023-03-02T11:06:38.887Z,8.20
2023-03-02T11:07:40.658Z,8.40
2023-03-02T11:08:42.388Z,8.70
2023-03-02T11:09:56.990Z,8.70
2023-03-02T11:11:21.586Z,8.80
2023-03-02T11:12:23.695Z,9.20
2023-03-02T11:13:37.387Z,9.40
2023-03-02T11:14:39.164Z,9.70
2023-03-02T11:15:46.439Z,9.90
2023-03-02T11:16:48.219Z,10.10
2023-03-02T11:18:16.100Z,10.20
2023-03-02T11:19:29.617Z,10.30
2023-03-02T11:20:37.286Z,10.50
2023-03-02T11:21:52.620Z,10.40
2023-03-02T11:23:07.832Z,9.90
2023-03-02T11:24:23.921Z,9.90
2023-03-02T11:25:31.165Z,10.10
2023-03-02T11:26:44.346Z,10.30
2023-03-02T11:27:46.839Z,10.40
2023-03-02T11:29:03.458Z,10.50
2023-03-02T11:30:22.723Z,10.70
2023-03-02T11:31:49.897Z,10.80
2023-03-02T11:33:03.108Z,10.80
2023-03-02T11:34:18.003Z,10.90
2023-03-02T11:35:58.723Z,11.00
2023-03-02T11:37:20.970Z,11.10
2023-03-02T11:38:48.411Z,11.20
2023-03-02T11:39:55.468Z,11.10
2023-03-02T11:41:04.404Z,11.00
2023-03-02T11:42:18.471Z,10.90
2023-03-02T11:43:20.276Z,10.90
2023-03-02T11:44:24.148Z,10.80
2023-03-02T11:45:38.271Z,10.70
2023-03-02T11:46:40.964Z,10.60
2023-03-02T11:48:02.577Z,10.50
2023-03-02T11:49:13.015Z,10.50
2023-03-02T11:50:16.616Z,10.20
2023-03-02T11:51:29.310Z,10.20
2023-03-02T11:52:37.664Z,10.10
2023-03-02T11:54:21.016Z,10.20
2023-03-02T11:55:25.979Z,10.40
2023-03-02T11:56:31.747Z,10.40
2023-03-02T11:57:40.145Z,10.40
2023-03-02T11:58:44.908Z,10.50
2023-03-02T11:59:47.256Z,10.50
2023-03-02T12:00:50.850Z,10.40
2023-03-02T12:01:54.418Z,10.40
2023-03-02T12:03:15.189Z,10.30
2023-03-02T12:04:37.382Z,10.30
2023-03-02T12:05:40.028Z,10.20
2023-03-02T12:06:44.134Z,10.10
2023-03-02T12:08:00.497Z,10.10
2023-03-02T12:09:34.387Z,10.10
2023-03-02T12:10:39.975Z,10.00
2023-03-02T12:11:46.284Z,9.90
2023-03-02T12:13:14.297Z,9.80
2023-03-02T12:14:38.128Z,9.80
2023-03-02T12:15:46.717Z,9.70
2023-03-02T12:16:48.575Z,9.60
2023-03-02T12:17:50.383Z,9.50
2023-03-02T12:18:53.039Z,9.50
2023-03-02T12:20:08.365Z,9.50
2023-03-02T12:21:22.555Z,9.40
2023-03-02T12:22:32.339Z,9.40
2023-03-02T12:23:51.351Z,9.30
2023-03-02T12:25:20.030Z,9.30
2023-03-02T12:26:21.788Z,9.20
2023-03-02T12:27:26.940Z,9.20
2023-03-02T12:28:39.148Z,9.10
2023-03-02T12:29:42.300Z,9.10
2023-03-02T12:30:44.073Z,9.10
2023-03-02T12:31:49.743Z,9.00
2023-03-02T12:33:22.570Z,9.00
2023-03-02T12:34:24.323Z,9.00
2023-03-02T12:35:26.896Z,9.00
2023-03-02T12:36:43.116Z,9.00
2023-03-02T12:37:51.876Z,9.00
2023-03-02T12:38:59.991Z,9.00
2023-03-02T12:40:19.730Z,9.00
2023-03-02T12:41:58.993Z,9.00
2023-03-02T12:43:19.845Z,8.90
2023-03-02T12:44:21.569Z,8.90
2023-03-02T12:45:26.109Z,8.90
2023-03-02T12:46:32.363Z,8.90
2023-03-02T12:47:34.766Z,8.80
2023-03-02T12:48:42.886Z,8.80
2023-03-02T12:49:51.114Z,8.80
2023-03-02T12:50:59.318Z,8.70
2023-03-02T12:52:26.386Z,8.60
2023-03-02T12:53:29.067Z,8.60
2023-03-02T12:54:33.646Z,8.50
2023-03-02T12:55:38.751Z,8.50
2023-03-02T12:56:40.663Z,8.50
2023-03-02T12:57:51.227Z,8.50
2023-03-02T12:58:54.267Z,8.50
2023-03-02T12:59:59.454Z,8.50
2023-03-02T13:01:03.024Z,8.40
2023-03-02T13:02:19.048Z,8.40
2023-03-02T13:03:21.280Z,8.40
2023-03-02T13:04:25.847Z,8.40
2023-03-02T13:05:30.290Z,8.40
2023-03-02T13:06:36.407Z,8.40
2023-03-02T13:07:56.463Z,8.40
2023-03-02T13:09:00.650Z,8.50
2023-03-02T13:10:26.790Z,8.50
2023-03-02T13:11:32.925Z,8.50
2023-03-02T13:12:37.348Z,8.50
2023-03-02T13:13:42.763Z,8.50
2023-03-02T13:14:50.013Z,8.50
2023-03-02T13:15:54.624Z,8.40
2023-03-02T13:16:59.068Z,8.30
2023-03-02T13:18:01.008Z,8.30
2023-03-02T13:19:10.978Z,8.30
2023-03-02T13:20:14.666Z,8.30
2023-03-02T13:21:18.098Z,8.30
2023-03-02T13:22:22.493Z,8.30
2023-03-02T13:23:26.477Z,8.30
2023-03-02T13:24:45.093Z,8.30
2023-03-02T13:25:53.716Z,8.40
2023-03-02T13:27:04.548Z,8.40
2023-03-02T13:28:10.032Z,8.40
2023-03-02T13:29:19.489Z,8.50
2023-03-02T13:30:28.003Z,8.50
2023-03-02T13:31:30.315Z,8.50
2023-03-02T13:32:51.347Z,8.40
2023-03-02T13:33:54.615Z,8.40
2023-03-02T13:34:59.242Z,8.40
2023-03-02T13:36:01.129Z,8.40
2023-03-02T13:37:13.502Z,8.40
2023-03-02T13:38:20.813Z,8.40
2023-03-02T13:39:27.768Z,8.40
2023-03-02T13:40:41.715Z,8.40
2023-03-02T13:41:58.945Z,8.40
2023-03-02T13:43:00.826Z,8.40
2023-03-02T13:44:20.540Z,8.40
2023-03-02T13:45:29.810Z,8.40
2023-03-02T13:46:36.126Z,8.40
2023-03-02T13:47:38.178Z,8.40
2023-03-02T13:48:39.918Z,8.30
2023-03-02T13:49:41.665Z,8.30
2023-03-02T13:50:57.072Z,8.30
2023-03-02T13:52:16.441Z,8.20
2023-03-02T13:53:18.245Z,8.20
2023-03-02T13:54:24.353Z,8.20
2023-03-02T13:55:27.193Z,8.20
2023-03-02T13:56:38.427Z,8.20
2023-03-02T13:57:41.710Z,8.20
2023-03-02T13:58:43.787Z,8.20
2023-03-02T13:59:45.644Z,8.20
2023-03-02T14:00:48.024Z,8.20
2023-03-02T14:01:50.099Z,8.20
2023-03-02T14:02:52.359Z,8.20
2023-03-02T14:03:55.429Z,8.20
2023-03-02T14:04:59.000Z,8.20
2023-03-02T14:06:00.988Z,8.20
2023-03-02T14:07:02.753Z,8.20
2023-03-02T14:08:06.870Z,8.20
2023-03-02T14:09:08.808Z,8.20
2023-03-02T14:10:11.833Z,8.20
2023-03-02T14:11:17.962Z,8.20
2023-03-02T14:12:32.885Z,8.20
2023-03-02T14:13:41.672Z,8.20
2023-03-02T14:14:45.305Z,8.20
2023-03-02T14:15:50.288Z,8.20